Centre Hospitalier Heliport

FR-0119 · Aveyron, Occitanie, Frankrijk

METAR historie FR-0119 · Centre Hospitalier Heliport

Hieronder zie je METAR's van de afgelopen dagen. Kies een jaar om door oudere METAR's te bladeren, vanaf het jaar 2007.

14 juli 2024

Tijd Code Weer Temp. Zicht Plafond Wind METAR/SPECI
08:30
V
16 °C 10 km+ - 110° 110° 4 kt METAR LFCR 140630Z AUTO 11004KT CAVOK 16/13 Q1014 NOSIG
08:00
V
14 °C 10 km+ - 120° 120° 4 kt METAR LFCR 140600Z AUTO 12004KT CAVOK 14/11 Q1013 NOSIG
07:30
V
13 °C 10 km+ - Var Var 2 kt METAR LFCR 140530Z AUTO VRB02KT CAVOK 13/11 Q1013 NOSIG
07:00
V
12 °C 10 km+ - 140° 140° 3 kt METAR LFCR 140500Z AUTO 14003KT CAVOK 12/10 Q1014 NOSIG
06:30
V
12 °C 10 km+ - 100° 100° 3 kt METAR LFCR 140430Z AUTO 10003KT CAVOK 12/11 Q1013 NOSIG
06:00
V
12 °C 10 km+ - 120° 120° 4 kt METAR LFCR 140400Z AUTO 12004KT CAVOK 12/11 Q1013 NOSIG
05:30
V
12 °C 10 km+ - 100° 100° 4 kt METAR LFCR 140330Z AUTO 10004KT CAVOK 12/11 Q1013 NOSIG
05:00
V
11 °C 10 km+ - 140° 140° 3 kt METAR LFCR 140300Z AUTO 14003KT CAVOK 11/10 Q1014 NOSIG
04:30
V
12 °C 10 km+ - 130° 130° 3 kt METAR LFCR 140230Z AUTO 13003KT CAVOK 12/10 Q1014 NOSIG
04:00
V
13 °C 10 km+ - 100° 100° 3 kt METAR LFCR 140200Z AUTO 10003KT CAVOK 13/11 Q1014 NOSIG
03:30
V
12 °C 10 km+ - 060° 060° 4 kt METAR LFCR 140130Z AUTO 06004KT CAVOK 12/11 Q1014 NOSIG
03:00
V
13 °C 10 km+ - 150° 150° 1 kt METAR LFCR 140100Z AUTO 15001KT CAVOK 13/11 Q1014 NOSIG
02:30
V
12 °C 10 km+ - 140° 140° 2 kt METAR LFCR 140030Z AUTO 14002KT CAVOK 12/11 Q1014 NOSIG
02:00
V
12 °C 10 km+ - 160° 160° 3 kt METAR LFCR 140000Z AUTO 16003KT CAVOK 12/11 Q1014 NOSIG
01:30
V
13 °C 10 km+ - 140° 140° 2 kt METAR LFCR 132330Z AUTO 14002KT CAVOK 13/11 Q1015 NOSIG
01:00
V
13 °C 10 km+ - Var Var 2 kt METAR LFCR 132300Z AUTO VRB02KT CAVOK 13/11 Q1015 NOSIG
00:30
V
14 °C 10 km+ - 150° 150° 2 kt METAR LFCR 132230Z AUTO 15002KT CAVOK 14/11 Q1015 NOSIG
00:00
V
14 °C 10 km+ - 140° 140° 3 kt METAR LFCR 132200Z AUTO 14003KT CAVOK 14/11 Q1015 NOSIG

13 juli 2024

Tijd Code Weer Temp. Zicht Plafond Wind METAR/SPECI
23:30
V
15 °C 10 km+ - 130° 130° 2 kt METAR LFCR 132130Z AUTO 13002KT CAVOK 15/11 Q1015 NOSIG
23:00
V
16 °C 10 km+ - Var Var 1 kt METAR LFCR 132100Z AUTO VRB01KT CAVOK 16/10 Q1015 NOSIG
22:30
V
17 °C 10 km+ - 330° 330° 3 kt METAR LFCR 132030Z AUTO 33003KT CAVOK 17/11 Q1015 NOSIG
22:00
V
17 °C 10 km+ - 310° 310° 5 kt METAR LFCR 132000Z AUTO 31005KT CAVOK 17/12 Q1015 NOSIG
21:30
V
18 °C 10 km+ - 330° 330° 3 kt METAR LFCR 131930Z AUTO 33003KT CAVOK 18/11 Q1014 NOSIG
21:00
V
19 °C 10 km+ - 300° 300° 3 kt METAR LFCR 131900Z AUTO 30003KT CAVOK 19/10 Q1014 NOSIG
20:30
V
20 °C 10 km+ - Var Var 3 kt METAR LFCR 131830Z AUTO VRB03KT CAVOK 20/10 Q1014 NOSIG
20:00
V
20 °C 10 km+ - 260° 260° 3 kt METAR LFCR 131800Z AUTO 26003KT 230V320 CAVOK 20/10 Q1014 NOSIG
19:30
V
20 °C 10 km+ - 270° 270° 4 kt METAR LFCR 131730Z AUTO 27004KT 210V310 CAVOK 20/09 Q1014 NOSIG
19:00
V
21 °C 10 km+ - 310° 310° 3 kt METAR LFCR 131700Z AUTO 31003KT 220V360 CAVOK 21/09 Q1014 NOSIG
18:30
V
21 °C 10 km+ - Var Var 2 kt METAR LFCR 131630Z AUTO VRB02KT CAVOK 21/10 Q1014 NOSIG
18:00
V
21 °C 10 km+ - 310° 310° 3 kt METAR LFCR 131600Z AUTO 31003KT 250V020 CAVOK 21/09 Q1014 NOSIG
17:30
V
21 °C 10 km+ - Var Var 3 kt METAR LFCR 131530Z AUTO VRB03KT CAVOK 21/11 Q1015 NOSIG
17:00
V
21 °C 10 km+ - Var Var 3 kt METAR LFCR 131500Z AUTO VRB03KT CAVOK 21/09 Q1015 NOSIG
16:30
V
20 °C 10 km+ - Var Var 3 kt METAR LFCR 131430Z AUTO VRB03KT CAVOK 20/09 Q1015 NOSIG
16:00
V
20 °C 10 km+ - 330° 330° 4 kt METAR LFCR 131400Z AUTO 33004KT 260V060 CAVOK 20/10 Q1015 NOSIG
15:30
V
19 °C 10 km+ - 350° 350° 4 kt METAR LFCR 131330Z AUTO 35004KT 320V050 CAVOK 19/10 Q1015 NOSIG
15:00
V
19 °C 10 km+ - Var Var 3 kt METAR LFCR 131300Z AUTO VRB03KT CAVOK 19/09 Q1015 NOSIG
14:30
V
19 °C 10 km+ - Var Var 4 kt METAR LFCR 131230Z AUTO VRB04KT CAVOK 19/09 Q1016 NOSIG
14:00
V
18 °C 10 km+ - 300° 300° 8 kt METAR LFCR 131200Z AUTO 30008KT 270V340 CAVOK 18/09 Q1016 NOSIG
13:30
V
18 °C 10 km+ - 300° 300° 7 kt METAR LFCR 131130Z AUTO 30007KT 250V360 CAVOK 18/08 Q1016 NOSIG
13:00
V
17 °C 10 km+ 21.000 ft Var Var 4 kt METAR LFCR 131100Z AUTO VRB04KT 9999 FEW031 BKN210 17/10 Q1016 NOSIG
12:30
V
16 °C 10 km+ - Var Var 3 kt METAR LFCR 131030Z AUTO VRB03KT CAVOK 16/09 Q1016 NOSIG
12:00
V
16 °C 10 km+ - 320° 320° 5 kt METAR LFCR 131000Z AUTO 32005KT 270V010 CAVOK 16/10 Q1016 NOSIG
11:30
V
16 °C 10 km+ - 340° 340° 5 kt METAR LFCR 130930Z AUTO 34005KT 270V010 CAVOK 16/09 Q1016 NOSIG
11:00
V
15 °C 10 km+ 22.000 ft 320° 320° 6 kt METAR LFCR 130900Z AUTO 32006KT 270V350 9999 FEW022 BKN220 15/08 Q1017 NOSIG
10:30
V
14 °C 10 km+ - 320° 320° 6 kt METAR LFCR 130830Z AUTO 32006KT 290V350 9999 FEW001 SCT230 14/09 Q1017 NOSIG
10:00
M
14 °C 10 km+ 1.800 ft 330° 330° 6 kt METAR LFCR 130800Z AUTO 33006KT 300V360 9999 BKN018 14/09 Q1017 NOSIG
09:30
V
13 °C 10 km+ - 320° 320° 4 kt METAR LFCR 130730Z AUTO 32004KT 260V020 9999 SCT016 SCT220 13/09 Q1017 NOSIG
09:00
V
13 °C 10 km+ - Var Var 1 kt METAR LFCR 130700Z AUTO VRB01KT CAVOK 13/10 Q1017 NOSIG
08:30
V
12 °C 10 km+ - 350° 350° 3 kt METAR LFCR 130630Z AUTO 35003KT 300V040 CAVOK 12/09 Q1017 NOSIG
08:00
V
11 °C 10 km+ - Var Var 3 kt METAR LFCR 130600Z AUTO VRB03KT CAVOK 11/09 Q1017 NOSIG
07:30
V
9 °C 10 km+ - 360° 360° 0 kt METAR LFCR 130530Z AUTO 00000KT CAVOK 09/09 Q1017 NOSIG
07:00
V
7 °C 10 km+ - 190° 190° 3 kt METAR LFCR 130500Z AUTO 19003KT CAVOK 07/07 Q1017 NOSIG
06:30
V
7 °C 10 km+ - 160° 160° 2 kt METAR LFCR 130430Z AUTO 16002KT CAVOK 07/07 Q1017 NOSIG
06:00
V
7 °C 10 km+ - 200° 200° 1 kt METAR LFCR 130400Z AUTO 20001KT CAVOK 07/06 Q1017 NOSIG
05:30
V
9 °C 10 km+ - 360° 360° 0 kt METAR LFCR 130330Z AUTO 00000KT CAVOK 09/07 Q1017 NOSIG
05:00
V
9 °C 10 km+ - 340° 340° 3 kt METAR LFCR 130300Z AUTO 34003KT CAVOK 09/08 Q1017 NOSIG
04:30
V
9 °C 10 km+ - 290° 290° 2 kt METAR LFCR 130230Z AUTO 29002KT CAVOK 09/08 Q1017 NOSIG
04:00
V
8 °C 10 km+ - Var Var 2 kt METAR LFCR 130200Z AUTO VRB02KT CAVOK 08/07 Q1017 NOSIG
03:30
V
10 °C 10 km+ - Var Var 1 kt METAR LFCR 130130Z AUTO VRB01KT CAVOK 10/08 Q1018 NOSIG
03:00
V
10 °C 10 km+ - Var Var 1 kt METAR LFCR 130100Z AUTO VRB01KT CAVOK 10/08 Q1018 NOSIG
02:30
V
10 °C 10 km+ - 290° 290° 6 kt METAR LFCR 130030Z AUTO 29006KT CAVOK 10/08 Q1018 NOSIG
02:00
V
11 °C 10 km+ - 290° 290° 9 kt METAR LFCR 130000Z AUTO 29009KT CAVOK 11/09 Q1018 NOSIG
01:30
V
11 °C 10 km+ - 280° 280° 9 kt METAR LFCR 122330Z AUTO 28009KT 9999 FEW035 11/09 Q1019 NOSIG
01:00
V
13 °C 10 km+ 3.400 ft 300° 300° 4 kt METAR LFCR 122300Z AUTO 30004KT 9999 BKN034 13/10 Q1019 NOSIG
00:30
V
13 °C 10 km+ - 270° 270° 5 kt METAR LFCR 122230Z AUTO 27005KT 9999 FEW039 13/10 Q1019 NOSIG
00:00
V
14 °C 10 km+ 3.500 ft 270° 270° 7 kt METAR LFCR 122200Z AUTO 27007KT 9999 BKN035 14/11 Q1019 NOSIG

12 juli 2024

Tijd Code Weer Temp. Zicht Plafond Wind METAR/SPECI
23:30
V
15 °C 10 km+ 3.400 ft 280° 280° 8 kt METAR LFCR 122130Z AUTO 28008KT 9999 BKN034 15/11 Q1019 NOSIG
23:00
V
15 °C 10 km+ 3.800 ft 280° 280° 8 kt METAR LFCR 122100Z AUTO 28008KT 9999 FEW028 BKN038 15/12 Q1018 NOSIG
22:30
V
16 °C 10 km+ - 290° 290° 8 kt METAR LFCR 122030Z AUTO 29008KT 9999 FEW033 SCT048 16/12 Q1018 NOSIG
22:00
V
16 °C 10 km+ 3.300 ft 280° 280° 8 kt METAR LFCR 122000Z AUTO 28008KT 9999 BKN033 BKN046 BKN054 16/12 Q1018 NOSIG
21:30
V
16 °C 10 km+ - 270° 270° 6 kt METAR LFCR 121930Z AUTO 27006KT 9999 SCT034 SCT056 16/12 Q1018 NOSIG
21:00
V
16 °C 10 km+ - 300° 300° 8 kt METAR LFCR 121900Z AUTO 30008KT CAVOK 16/12 Q1018 NOSIG
20:30
V
18 °C 10 km+ - 300° 300° 10 kt METAR LFCR 121830Z AUTO 30010KT CAVOK 18/12 Q1018 NOSIG
20:00
V
19 °C 10 km+ 5.600 ft 300° 300° 9 kt METAR LFCR 121800Z AUTO 30009KT 9999 FEW032 BKN056 19/12 Q1017 NOSIG
19:30
V
19 °C 10 km+ 5.600 ft 290° 290° 12 kt METAR LFCR 121730Z AUTO 29012KT 9999 FEW029 BKN056 19/12 Q1018 NOSIG
19:00
V
19 °C 10 km+ 5.600 ft 300° 300° 12 kt METAR LFCR 121700Z AUTO 30012KT 9999 FEW030 SCT035 BKN056 19/13 Q1017 NOSIG
18:30
V
18 °C 10 km+ - 300° 300° 13 kt METAR LFCR 121630Z AUTO 30013KT 9999 FEW045 18/13 Q1017 NOSIG
18:00
V
20 °C 10 km+ 4.700 ft 290° 290° 13 kt METAR LFCR 121600Z AUTO 29013KT 9999 FEW029 SCT035 BKN047 20/14 Q1017 NOSIG
17:30
V
19 °C 10 km+ 3.200 ft 300° 300° 13 kt METAR LFCR 121530Z AUTO 30013KT 9999 SCT026 BKN032 BKN038 19/14 Q1018 NOSIG
17:00
V
19 °C 10 km+ 5.000 ft 290° 290° 12 kt METAR LFCR 121500Z AUTO 29012KT 9999 SCT020 BKN050 BKN096 19/14 Q1018 TEMPO 29015G25KT 4000 SHRA BKN014 SCT040CB
16:30
V
20 °C 10 km+ 4.100 ft 280° 280° 13 kt METAR LFCR 121430Z AUTO 28013KT 9999 FEW020 SCT031 BKN041 20/16 Q1018 TEMPO 29015G25KT 4000 SHRA BKN014 SCT040CB
16:00
M
18 °C 10 km+ 2.100 ft 300° 300° 13 kt METAR LFCR 121400Z AUTO 30013KT 9999 BKN021 BKN030 BKN037 18/15 Q1018 TEMPO 29015G25KT 4000 SHRA BKN014 SCT040CB
15:30
M
18 °C 10 km+ 1.400 ft 290° 290° 14 kt METAR LFCR 121330Z AUTO 29014KT 250V320 9999 BKN014 BKN021 BKN032 18/15 Q1018 TEMPO 29015G25KT 4000 SHRA BKN014 SCT040CB
15:00
M
18 °C 10 km+ 2.700 ft 290° 290° 15 kt METAR LFCR 121300Z AUTO 29015KT 9999 SCT014 SCT022 BKN027 18/16 Q1018 TEMPO 29015G25KT 4000 SHRA BKN014 SCT040CB
14:30
V
19 °C 10 km+ 3.400 ft 280° 280° 15 kt METAR LFCR 121230Z AUTO 28015KT 9999 FEW018 BKN034 OVC043 19/16 Q1017 TEMPO 29015G25KT 4000 SHRA BKN014 SCT040CB
14:00
M
19 °C 10 km+ 1.200 ft 290° 290° 16 kt METAR LFCR 121200Z AUTO 29016KT 9999 BKN012/// BKN018/// BKN028/// ///CB 19/18 Q1017 TEMPO 29015G25KT 4000 SHRA
13:30
M
18 °C 10 km+ 1.600 ft 270° 270° 13 kt METAR LFCR 121130Z AUTO 27013KT 9999 FEW011/// BKN016/// BKN027/// ///CB 18/16 Q1017 TEMPO 29015G25KT 4000 SHRA BKN014 SCT040CB
13:00
M
18 °C 10 km+ 1.700 ft 280° 280° 10 kt METAR LFCR 121100Z AUTO 28010KT 9999 SCT007/// SCT012/// BKN017/// ///CB 18/17 Q1017 TEMPO 29015G25KT 4000 SHRA BKN014 SCT040CB
12:30
I
18 °C 4,2 km 2.700 ft 260° 260° 10 kt METAR LFCR 121030Z AUTO 26010KT 4200 -RA BR FEW015/// BKN027/// BKN032/// //////TCU 18/17 Q1017 TEMPO 29015G25KT SHRA BKN014 SCT040CB
12:00
M
20 °C 10 km+ 3.000 ft 230° 230° 7 kt METAR LFCR 121000Z AUTO 23007KT 190V260 9999 FEW023/// BKN030/// BKN035/// ///CB 20/16 Q1017 TEMPO 29015G25KT 4000 SHRA BKN014 SCT040CB
11:30
V
20 °C 10 km+ 5.200 ft 220° 220° 7 kt METAR LFCR 120930Z AUTO 22007KT 180V240 9999 FEW019/// BKN052/// //////CB 20/16 Q1017 TEMPO 29015G25KT 4000 SHRA BKN014 SCT040CB
11:00
V
19 °C 10 km+ 4.300 ft 260° 260° 7 kt METAR LFCR 120900Z AUTO 26007KT 230V300 9999 SCT014 SCT037 BKN043 19/16 Q1017 TEMPO 29015G25KT 4000 SHRA BKN014 SCT040CB
10:30
M
19 °C 10 km+ 1.200 ft 270° 270° 9 kt METAR LFCR 120830Z AUTO 27009KT 9999 BKN012 OVC043 19/17 Q1017 TEMPO 29015G25KT 4000 SHRA BKN014 SCT040CB
10:00
M
18 °C 10 km+ 1.200 ft 270° 270° 7 kt METAR LFCR 120800Z AUTO 27007KT 230V290 9999 BKN012 BKN020 OVC043 18/16 Q1017 TEMPO 29015G25KT 4000 SHRA BKN014 SCT040CB
09:30
M
17 °C 10 km+ 2.500 ft 250° 250° 10 kt METAR LFCR 120730Z AUTO 25010KT 9999 SCT006/// SCT011/// BKN025/// ///TCU 17/16 Q1018 TEMPO 29015G25KT 4000 SHRA BKN014 SCT040CB
09:00
I
18 °C 10 km+ 700 ft 240° 240° 7 kt METAR LFCR 120700Z AUTO 24007KT 9999 BKN007 BKN013 BKN018 18/17 Q1017 TEMPO 29015G25KT 4000 SHRA BKN014 SCT040CB
08:30
I
17 °C 10 km+ 600 ft 250° 250° 3 kt METAR LFCR 120630Z AUTO 25003KT 9999 BKN006 BKN010 OVC016 17/17 Q1017 TEMPO 29015G25KT 4000 SHRA BKN014 SCT040CB
08:00
I
17 °C 10 km+ 700 ft 260° 260° 7 kt METAR LFCR 120600Z AUTO 26007KT 9999 BKN007 BKN013 BKN020 17/17 Q1017 TEMPO 4000 -DZ OVC004
Wijziging doorgeven